sensor_id;sensor_type;location;lat;lon;timestamp;pressure;altitude;pressure_sealevel;temperature;humidity
73106;BME280;61559;50.476;15.588;2023-03-20T00:00:35;97656.05;;;5.34;80.87
73106;BME280;61559;50.476;15.588;2023-03-20T00:03:20;97653.97;;;5.32;80.89
73106;BME280;61559;50.476;15.588;2023-03-20T00:05:51;97654.95;;;5.31;80.93
73106;BME280;61559;50.476;15.588;2023-03-20T00:08:22;97658.52;;;5.32;80.98
73106;BME280;61559;50.476;15.588;2023-03-20T00:10:55;97660.60;;;5.34;81.04
73106;BME280;61559;50.476;15.588;2023-03-20T00:13:27;97663.08;;;5.36;81.14
73106;BME280;61559;50.476;15.588;2023-03-20T00:15:58;97659.10;;;5.37;81.11
73106;BME280;61559;50.476;15.588;2023-03-20T00:18:30;97665.13;;;5.42;80.98
73106;BME280;61559;50.476;15.588;2023-03-20T00:21:01;97667.01;;;5.44;80.97
73106;BME280;61559;50.476;15.588;2023-03-20T00:23:30;97665.71;;;5.45;80.95
73106;BME280;61559;50.476;15.588;2023-03-20T00:26:02;97664.44;;;5.46;80.95
73106;BME280;61559;50.476;15.588;2023-03-20T00:28:38;97665.61;;;5.46;80.98
73106;BME280;61559;50.476;15.588;2023-03-20T00:31:21;97662.90;;;5.46;81.08
73106;BME280;61559;50.476;15.588;2023-03-20T00:33:55;97655.35;;;5.45;81.09
73106;BME280;61559;50.476;15.588;2023-03-20T00:36:27;97656.83;;;5.45;81.08
73106;BME280;61559;50.476;15.588;2023-03-20T00:38:58;97652.54;;;5.45;81.22
73106;BME280;61559;50.476;15.588;2023-03-20T00:41:35;97650.53;;;5.41;81.27
73106;BME280;61559;50.476;15.588;2023-03-20T00:44:20;97647.90;;;5.37;81.41
73106;BME280;61559;50.476;15.588;2023-03-20T00:46:54;97642.73;;;5.39;81.50
73106;BME280;61559;50.476;15.588;2023-03-20T00:49:29;97642.86;;;5.42;81.49
73106;BME280;61559;50.476;15.588;2023-03-20T00:52:01;97639.42;;;5.43;81.50
73106;BME280;61559;50.476;15.588;2023-03-20T00:54:33;97641.77;;;5.45;81.55
73106;BME280;61559;50.476;15.588;2023-03-20T00:57:08;97641.42;;;5.48;81.59
73106;BME280;61559;50.476;15.588;2023-03-20T00:59:50;97640.23;;;5.51;81.57
73106;BME280;61559;50.476;15.588;2023-03-20T01:02:25;97639.61;;;5.52;81.52
73106;BME280;61559;50.476;15.588;2023-03-20T01:04:58;97647.09;;;5.54;81.56
73106;BME280;61559;50.476;15.588;2023-03-20T01:07:29;97652.36;;;5.53;81.50
73106;BME280;61559;50.476;15.588;2023-03-20T01:09:59;97646.94;;;5.55;81.57
73106;BME280;61559;50.476;15.588;2023-03-20T01:12:30;97645.25;;;5.55;81.57
73106;BME280;61559;50.476;15.588;2023-03-20T01:15:02;97644.20;;;5.58;81.51
73106;BME280;61559;50.476;15.588;2023-03-20T01:17:33;97643.86;;;5.61;81.46
73106;BME280;61559;50.476;15.588;2023-03-20T01:20:04;97641.80;;;5.63;81.45
73106;BME280;61559;50.476;15.588;2023-03-20T01:22:36;97640.33;;;5.63;81.52
73106;BME280;61559;50.476;15.588;2023-03-20T01:25:08;97638.01;;;5.65;81.45
73106;BME280;61559;50.476;15.588;2023-03-20T01:27:48;97639.91;;;5.63;81.51
73106;BME280;61559;50.476;15.588;2023-03-20T01:30:22;97643.64;;;5.63;81.68
73106;BME280;61559;50.476;15.588;2023-03-20T01:32:54;97642.66;;;5.65;81.63
73106;BME280;61559;50.476;15.588;2023-03-20T01:35:26;97640.13;;;5.68;81.61
73106;BME280;61559;50.476;15.588;2023-03-20T01:37:57;97640.85;;;5.71;81.50
73106;BME280;61559;50.476;15.588;2023-03-20T01:40:39;97641.10;;;5.73;81.43
73106;BME280;61559;50.476;15.588;2023-03-20T01:43:16;97645.45;;;5.77;81.56
73106;BME280;61559;50.476;15.588;2023-03-20T01:45:53;97646.80;;;5.80;81.52
73106;BME280;61559;50.476;15.588;2023-03-20T01:48:32;97641.98;;;5.82;81.46
73106;BME280;61559;50.476;15.588;2023-03-20T01:51:06;97641.58;;;5.82;81.34
73106;BME280;61559;50.476;15.588;2023-03-20T01:53:38;97642.51;;;5.80;81.16
73106;BME280;61559;50.476;15.588;2023-03-20T01:56:10;97642.52;;;5.79;81.33
73106;BME280;61559;50.476;15.588;2023-03-20T01:58:46;97641.00;;;5.77;81.26
73106;BME280;61559;50.476;15.588;2023-03-20T02:01:18;97644.19;;;5.76;81.21
73106;BME280;61559;50.476;15.588;2023-03-20T02:03:50;97647.14;;;5.77;81.28
73106;BME280;61559;50.476;15.588;2023-03-20T02:06:23;97640.39;;;5.78;81.25
73106;BME280;61559;50.476;15.588;2023-03-20T02:08:55;97639.52;;;5.78;81.26
73106;BME280;61559;50.476;15.588;2023-03-20T02:11:26;97635.98;;;5.78;81.11
73106;BME280;61559;50.476;15.588;2023-03-20T02:14:00;97636.76;;;5.78;81.17
73106;BME280;61559;50.476;15.588;2023-03-20T02:16:32;97638.13;;;5.78;81.19
73106;BME280;61559;50.476;15.588;2023-03-20T02:19:05;97641.45;;;5.78;81.09
73106;BME280;61559;50.476;15.588;2023-03-20T02:21:55;97636.86;;;5.79;81.08
73106;BME280;61559;50.476;15.588;2023-03-20T02:27:40;97637.45;;;5.74;81.00
73106;BME280;61559;50.476;15.588;2023-03-20T02:30:39;97645.36;;;5.76;81.06
73106;BME280;61559;50.476;15.588;2023-03-20T02:39:42;97645.12;;;5.69;81.05
73106;BME280;61559;50.476;15.588;2023-03-20T02:42:22;97636.39;;;5.68;81.05
73106;BME280;61559;50.476;15.588;2023-03-20T02:45:09;97639.49;;;5.65;81.13
73106;BME280;61559;50.476;15.588;2023-03-20T02:47:50;97639.27;;;5.62;81.11
73106;BME280;61559;50.476;15.588;2023-03-20T02:50:30;97642.88;;;5.58;81.14
73106;BME280;61559;50.476;15.588;2023-03-20T02:53:10;97642.65;;;5.55;81.25
73106;BME280;61559;50.476;15.588;2023-03-20T02:55:50;97643.69;;;5.52;81.34
73106;BME280;61559;50.476;15.588;2023-03-20T02:58:27;97637.88;;;5.51;81.46
73106;BME280;61559;50.476;15.588;2023-03-20T03:01:05;97641.71;;;5.50;81.48
73106;BME280;61559;50.476;15.588;2023-03-20T03:03:44;97638.70;;;5.51;81.57
73106;BME280;61559;50.476;15.588;2023-03-20T03:06:19;97636.50;;;5.52;81.64
73106;BME280;61559;50.476;15.588;2023-03-20T03:08:56;97635.46;;;5.53;81.65
73106;BME280;61559;50.476;15.588;2023-03-20T03:11:33;97637.85;;;5.54;81.50
73106;BME280;61559;50.476;15.588;2023-03-20T03:14:08;97636.77;;;5.54;81.50
73106;BME280;61559;50.476;15.588;2023-03-20T03:16:45;97634.23;;;5.54;81.50
73106;BME280;61559;50.476;15.588;2023-03-20T03:19:20;97637.39;;;5.54;81.60
73106;BME280;61559;50.476;15.588;2023-03-20T03:21:53;97632.69;;;5.54;81.63
73106;BME280;61559;50.476;15.588;2023-03-20T03:24:28;97639.02;;;5.55;81.61
73106;BME280;61559;50.476;15.588;2023-03-20T03:27:14;97637.52;;;5.52;81.58
73106;BME280;61559;50.476;15.588;2023-03-20T03:29:51;97642.34;;;5.50;81.44
73106;BME280;61559;50.476;15.588;2023-03-20T03:32:27;97641.95;;;5.47;81.46
73106;BME280;61559;50.476;15.588;2023-03-20T03:35:00;97643.01;;;5.43;81.45
73106;BME280;61559;50.476;15.588;2023-03-20T03:37:41;97637.31;;;5.40;81.32
73106;BME280;61559;50.476;15.588;2023-03-20T03:40:24;97636.17;;;5.35;81.49
73106;BME280;61559;50.476;15.588;2023-03-20T03:43:02;97635.85;;;5.31;81.57
73106;BME280;61559;50.476;15.588;2023-03-20T03:45:38;97634.77;;;5.28;81.31
73106;BME280;61559;50.476;15.588;2023-03-20T03:48:17;97634.41;;;5.26;81.27
73106;BME280;61559;50.476;15.588;2023-03-20T03:50:52;97632.74;;;5.23;81.16
73106;BME280;61559;50.476;15.588;2023-03-20T03:53:29;97635.58;;;5.21;81.15
73106;BME280;61559;50.476;15.588;2023-03-20T03:56:03;97639.23;;;5.19;81.20
73106;BME280;61559;50.476;15.588;2023-03-20T03:58:38;97643.09;;;5.17;81.27
73106;BME280;61559;50.476;15.588;2023-03-20T04:01:13;97646.06;;;5.16;81.22
73106;BME280;61559;50.476;15.588;2023-03-20T04:03:48;97646.99;;;5.13;81.17
73106;BME280;61559;50.476;15.588;2023-03-20T04:06:20;97648.19;;;5.10;81.26
73106;BME280;61559;50.476;15.588;2023-03-20T04:08:51;97645.13;;;5.10;81.42
73106;BME280;61559;50.476;15.588;2023-03-20T04:11:24;97644.53;;;5.08;81.52
73106;BME280;61559;50.476;15.588;2023-03-20T04:13:57;97647.65;;;5.08;81.54
73106;BME280;61559;50.476;15.588;2023-03-20T04:16:28;97646.80;;;5.05;81.59
73106;BME280;61559;50.476;15.588;2023-03-20T04:18:59;97649.71;;;4.97;81.76
73106;BME280;61559;50.476;15.588;2023-03-20T04:21:31;97649.39;;;4.90;81.87
73106;BME280;61559;50.476;15.588;2023-03-20T04:24:02;97649.41;;;4.88;82.01
73106;BME280;61559;50.476;15.588;2023-03-20T04:26:31;97646.20;;;4.88;81.99
73106;BME280;61559;50.476;15.588;2023-03-20T04:29:02;97647.90;;;4.85;82.09
73106;BME280;61559;50.476;15.588;2023-03-20T04:31:33;97653.41;;;4.85;82.12
73106;BME280;61559;50.476;15.588;2023-03-20T04:34:05;97644.96;;;4.82;82.12
73106;BME280;61559;50.476;15.588;2023-03-20T04:36:36;97657.55;;;4.84;82.07
73106;BME280;61559;50.476;15.588;2023-03-20T04:39:07;97657.95;;;4.84;82.06
73106;BME280;61559;50.476;15.588;2023-03-20T04:41:38;97659.40;;;4.82;82.12
73106;BME280;61559;50.476;15.588;2023-03-20T04:44:09;97659.27;;;4.79;82.06
73106;BME280;61559;50.476;15.588;2023-03-20T04:46:40;97652.14;;;4.76;82.03
73106;BME280;61559;50.476;15.588;2023-03-20T04:49:10;97655.69;;;4.73;82.29
73106;BME280;61559;50.476;15.588;2023-03-20T04:51:41;97655.76;;;4.67;82.18
73106;BME280;61559;50.476;15.588;2023-03-20T04:54:12;97660.67;;;4.64;82.21
73106;BME280;61559;50.476;15.588;2023-03-20T04:56:43;97660.94;;;4.63;82.14
73106;BME280;61559;50.476;15.588;2023-03-20T04:59:14;97666.46;;;4.59;82.19
73106;BME280;61559;50.476;15.588;2023-03-20T05:01:46;97668.56;;;4.57;82.08
73106;BME280;61559;50.476;15.588;2023-03-20T05:04:15;97668.42;;;4.53;81.82
73106;BME280;61559;50.476;15.588;2023-03-20T05:06:47;97671.72;;;4.47;81.81
73106;BME280;61559;50.476;15.588;2023-03-20T05:09:18;97674.89;;;4.44;81.67
73106;BME280;61559;50.476;15.588;2023-03-20T05:11:49;97676.18;;;4.41;81.83
73106;BME280;61559;50.476;15.588;2023-03-20T05:14:19;97675.48;;;4.41;81.85
73106;BME280;61559;50.476;15.588;2023-03-20T05:16:50;97681.29;;;4.37;81.97
73106;BME280;61559;50.476;15.588;2023-03-20T05:19:21;97682.25;;;4.39;82.03
73106;BME280;61559;50.476;15.588;2023-03-20T05:21:51;97684.70;;;4.40;82.03
73106;BME280;61559;50.476;15.588;2023-03-20T05:24:22;97693.13;;;4.39;82.07
73106;BME280;61559;50.476;15.588;2023-03-20T05:26:53;97691.08;;;4.40;82.10
73106;BME280;61559;50.476;15.588;2023-03-20T05:29:24;97685.00;;;4.41;82.22
73106;BME280;61559;50.476;15.588;2023-03-20T05:31:55;97681.48;;;4.41;82.20
73106;BME280;61559;50.476;15.588;2023-03-20T05:34:26;97679.34;;;4.40;82.25
73106;BME280;61559;50.476;15.588;2023-03-20T05:36:57;97681.41;;;4.35;82.34
73106;BME280;61559;50.476;15.588;2023-03-20T05:39:27;97683.80;;;4.28;82.52
73106;BME280;61559;50.476;15.588;2023-03-20T05:41:58;97683.10;;;4.24;82.61
73106;BME280;61559;50.476;15.588;2023-03-20T05:44:30;97687.70;;;4.23;82.71
73106;BME280;61559;50.476;15.588;2023-03-20T05:47:01;97683.56;;;4.24;82.62
73106;BME280;61559;50.476;15.588;2023-03-20T05:49:32;97684.73;;;4.26;82.53
73106;BME280;61559;50.476;15.588;2023-03-20T05:52:02;97686.77;;;4.28;82.34
73106;BME280;61559;50.476;15.588;2023-03-20T05:54:33;97686.35;;;4.30;82.46
73106;BME280;61559;50.476;15.588;2023-03-20T05:57:04;97683.84;;;4.30;82.32
73106;BME280;61559;50.476;15.588;2023-03-20T05:59:33;97686.34;;;4.31;82.16
73106;BME280;61559;50.476;15.588;2023-03-20T06:02:05;97684.31;;;4.28;82.42
73106;BME280;61559;50.476;15.588;2023-03-20T06:04:36;97691.85;;;4.31;82.46
73106;BME280;61559;50.476;15.588;2023-03-20T06:07:07;97699.77;;;4.35;82.40
73106;BME280;61559;50.476;15.588;2023-03-20T06:09:38;97698.13;;;4.37;82.41
73106;BME280;61559;50.476;15.588;2023-03-20T06:12:09;97702.14;;;4.41;82.31
73106;BME280;61559;50.476;15.588;2023-03-20T06:14:40;97706.87;;;4.44;82.29
73106;BME280;61559;50.476;15.588;2023-03-20T06:17:09;97708.80;;;4.48;82.37
73106;BME280;61559;50.476;15.588;2023-03-20T06:19:40;97704.20;;;4.51;82.44
73106;BME280;61559;50.476;15.588;2023-03-20T06:22:11;97706.77;;;4.57;82.55
73106;BME280;61559;50.476;15.588;2023-03-20T06:24:43;97709.30;;;4.63;82.67
73106;BME280;61559;50.476;15.588;2023-03-20T06:27:15;97708.91;;;4.68;82.59
73106;BME280;61559;50.476;15.588;2023-03-20T06:29:46;97712.34;;;4.69;82.65
73106;BME280;61559;50.476;15.588;2023-03-20T06:32:17;97716.14;;;4.73;82.82
73106;BME280;61559;50.476;15.588;2023-03-20T06:34:49;97718.35;;;4.81;83.04
73106;BME280;61559;50.476;15.588;2023-03-20T06:37:21;97719.05;;;4.92;83.17
73106;BME280;61559;50.476;15.588;2023-03-20T06:39:52;97722.66;;;5.05;83.44
73106;BME280;61559;50.476;15.588;2023-03-20T06:42:23;97721.65;;;5.18;83.31
73106;BME280;61559;50.476;15.588;2023-03-20T06:44:55;97717.83;;;5.32;83.31
73106;BME280;61559;50.476;15.588;2023-03-20T06:47:26;97720.83;;;5.47;83.20
73106;BME280;61559;50.476;15.588;2023-03-20T06:49:56;97725.52;;;5.62;83.13
73106;BME280;61559;50.476;15.588;2023-03-20T06:52:27;97728.81;;;5.77;82.73
73106;BME280;61559;50.476;15.588;2023-03-20T06:54:58;97723.90;;;5.91;82.70
73106;BME280;61559;50.476;15.588;2023-03-20T06:57:30;97711.11;;;6.03;82.45
73106;BME280;61559;50.476;15.588;2023-03-20T07:00:01;97714.77;;;6.19;82.39
73106;BME280;61559;50.476;15.588;2023-03-20T07:02:33;97719.23;;;6.27;82.16
73106;BME280;61559;50.476;15.588;2023-03-20T07:05:06;97725.52;;;6.42;81.78
73106;BME280;61559;50.476;15.588;2023-03-20T07:07:37;97726.27;;;6.53;81.60
73106;BME280;61559;50.476;15.588;2023-03-20T07:10:10;97726.15;;;6.67;81.46
73106;BME280;61559;50.476;15.588;2023-03-20T07:12:41;97725.48;;;6.80;81.14
73106;BME280;61559;50.476;15.588;2023-03-20T07:15:13;97723.94;;;6.92;81.00
73106;BME280;61559;50.476;15.588;2023-03-20T07:17:44;97726.10;;;7.05;80.92
73106;BME280;61559;50.476;15.588;2023-03-20T07:20:16;97726.84;;;7.18;80.47
73106;BME280;61559;50.476;15.588;2023-03-20T07:22:48;97731.52;;;7.31;80.12
73106;BME280;61559;50.476;15.588;2023-03-20T07:25:19;97732.56;;;7.44;79.68
73106;BME280;61559;50.476;15.588;2023-03-20T07:28:10;97727.41;;;7.56;79.23
73106;BME280;61559;50.476;15.588;2023-03-20T07:30:41;97727.23;;;7.70;78.78
73106;BME280;61559;50.476;15.588;2023-03-20T07:33:10;97726.70;;;7.82;78.53
73106;BME280;61559;50.476;15.588;2023-03-20T07:35:41;97730.53;;;7.93;78.19
73106;BME280;61559;50.476;15.588;2023-03-20T07:38:13;97732.04;;;8.06;78.05
73106;BME280;61559;50.476;15.588;2023-03-20T07:40:44;97732.42;;;8.16;77.72
73106;BME280;61559;50.476;15.588;2023-03-20T07:43:13;97730.42;;;8.27;77.67
73106;BME280;61559;50.476;15.588;2023-03-20T07:45:44;97730.09;;;8.32;77.17
73106;BME280;61559;50.476;15.588;2023-03-20T07:48:15;97729.03;;;8.38;76.69
73106;BME280;61559;50.476;15.588;2023-03-20T07:50:46;97730.29;;;8.42;76.72
73106;BME280;61559;50.476;15.588;2023-03-20T07:53:17;97737.25;;;8.46;76.58
73106;BME280;61559;50.476;15.588;2023-03-20T07:55:48;97736.56;;;8.52;76.50
73106;BME280;61559;50.476;15.588;2023-03-20T07:58:20;97730.14;;;8.60;76.50
73106;BME280;61559;50.476;15.588;2023-03-20T08:00:51;97732.89;;;8.71;76.62
73106;BME280;61559;50.476;15.588;2023-03-20T08:03:22;97735.84;;;8.82;76.70
73106;BME280;61559;50.476;15.588;2023-03-20T08:05:54;97732.02;;;8.93;76.49
73106;BME280;61559;50.476;15.588;2023-03-20T08:08:26;97738.58;;;9.03;76.17
73106;BME280;61559;50.476;15.588;2023-03-20T08:10:57;97736.36;;;9.11;75.77
73106;BME280;61559;50.476;15.588;2023-03-20T08:13:28;97733.02;;;9.16;75.70
73106;BME280;61559;50.476;15.588;2023-03-20T08:15:59;97735.34;;;9.23;75.77
73106;BME280;61559;50.476;15.588;2023-03-20T08:18:30;97738.05;;;9.30;75.40
73106;BME280;61559;50.476;15.588;2023-03-20T08:21:01;97736.73;;;9.36;74.95
73106;BME280;61559;50.476;15.588;2023-03-20T08:23:32;97737.94;;;9.40;74.78
73106;BME280;61559;50.476;15.588;2023-03-20T08:26:04;97739.35;;;9.46;74.64
73106;BME280;61559;50.476;15.588;2023-03-20T08:28:35;97741.66;;;9.45;74.14
73106;BME280;61559;50.476;15.588;2023-03-20T08:31:17;97742.14;;;9.43;74.22
73106;BME280;61559;50.476;15.588;2023-03-20T08:33:48;97741.73;;;9.45;74.48
73106;BME280;61559;50.476;15.588;2023-03-20T08:36:20;97744.02;;;9.50;74.66
73106;BME280;61559;50.476;15.588;2023-03-20T08:38:51;97745.60;;;9.54;74.37
73106;BME280;61559;50.476;15.588;2023-03-20T08:41:22;97749.64;;;9.57;74.52
73106;BME280;61559;50.476;15.588;2023-03-20T08:43:53;97751.16;;;9.61;74.67
73106;BME280;61559;50.476;15.588;2023-03-20T08:46:25;97751.61;;;9.66;74.55
73106;BME280;61559;50.476;15.588;2023-03-20T08:48:56;97752.19;;;9.67;74.43
73106;BME280;61559;50.476;15.588;2023-03-20T08:51:27;97752.48;;;9.70;74.27
73106;BME280;61559;50.476;15.588;2023-03-20T08:53:58;97751.47;;;9.69;73.93
73106;BME280;61559;50.476;15.588;2023-03-20T08:56:29;97755.84;;;9.70;74.03
73106;BME280;61559;50.476;15.588;2023-03-20T08:58:59;97757.45;;;9.77;74.31
73106;BME280;61559;50.476;15.588;2023-03-20T09:01:30;97757.04;;;9.84;74.10
73106;BME280;61559;50.476;15.588;2023-03-20T09:04:17;97757.29;;;9.95;74.23
73106;BME280;61559;50.476;15.588;2023-03-20T09:06:49;97759.66;;;10.03;74.11
73106;BME280;61559;50.476;15.588;2023-03-20T09:09:20;97758.96;;;10.10;74.11
73106;BME280;61559;50.476;15.588;2023-03-20T09:11:59;97761.14;;;10.16;73.93
73106;BME280;61559;50.476;15.588;2023-03-20T09:14:31;97763.64;;;10.20;74.03
73106;BME280;61559;50.476;15.588;2023-03-20T09:17:02;97763.05;;;10.23;73.73
73106;BME280;61559;50.476;15.588;2023-03-20T09:19:33;97758.66;;;10.31;73.53
73106;BME280;61559;50.476;15.588;2023-03-20T09:22:08;97761.41;;;10.47;73.62
73106;BME280;61559;50.476;15.588;2023-03-20T09:24:41;97758.46;;;10.63;73.16
73106;BME280;61559;50.476;15.588;2023-03-20T09:27:12;97750.37;;;10.74;72.94
73106;BME280;61559;50.476;15.588;2023-03-20T09:29:44;97745.35;;;10.86;72.34
73106;BME280;61559;50.476;15.588;2023-03-20T09:32:15;97745.09;;;10.93;72.39
73106;BME280;61559;50.476;15.588;2023-03-20T09:34:48;97750.77;;;11.00;72.97
73106;BME280;61559;50.476;15.588;2023-03-20T09:37:19;97748.49;;;11.05;72.46
73106;BME280;61559;50.476;15.588;2023-03-20T09:39:50;97743.55;;;11.04;71.97
73106;BME280;61559;50.476;15.588;2023-03-20T09:42:31;97745.06;;;10.98;71.85
73106;BME280;61559;50.476;15.588;2023-03-20T09:45:13;97741.27;;;10.90;72.00
73106;BME280;61559;50.476;15.588;2023-03-20T09:47:53;97739.32;;;10.84;72.23
73106;BME280;61559;50.476;15.588;2023-03-20T09:50:32;97744.83;;;10.82;72.42
73106;BME280;61559;50.476;15.588;2023-03-20T09:53:10;97741.71;;;10.83;72.34
73106;BME280;61559;50.476;15.588;2023-03-20T09:55:45;97743.52;;;10.89;72.72
73106;BME280;61559;50.476;15.588;2023-03-20T09:58:22;97739.66;;;11.01;72.68
73106;BME280;61559;50.476;15.588;2023-03-20T10:00:57;97741.34;;;11.07;72.26
73106;BME280;61559;50.476;15.588;2023-03-20T10:03:31;97738.89;;;11.10;71.80
73106;BME280;61559;50.476;15.588;2023-03-20T10:06:11;97741.04;;;11.12;71.68
73106;BME280;61559;50.476;15.588;2023-03-20T10:08:43;97738.47;;;11.19;72.17
73106;BME280;61559;50.476;15.588;2023-03-20T10:11:29;97743.83;;;11.37;72.13
73106;BME280;61559;50.476;15.588;2023-03-20T10:14:06;97741.63;;;11.53;71.60
73106;BME280;61559;50.476;15.588;2023-03-20T10:16:56;97741.22;;;11.59;71.21
73106;BME280;61559;50.476;15.588;2023-03-20T10:19:32;97740.64;;;11.64;71.19
73106;BME280;61559;50.476;15.588;2023-03-20T10:22:13;97735.44;;;11.70;71.32
73106;BME280;61559;50.476;15.588;2023-03-20T10:24:51;97732.16;;;11.77;70.47
73106;BME280;61559;50.476;15.588;2023-03-20T10:27:23;97729.25;;;11.83;70.34
73106;BME280;61559;50.476;15.588;2023-03-20T10:30:05;97729.98;;;11.89;69.57
73106;BME280;61559;50.476;15.588;2023-03-20T10:32:48;97728.41;;;11.97;68.81
73106;BME280;61559;50.476;15.588;2023-03-20T10:35:25;97730.71;;;11.99;67.48
73106;BME280;61559;50.476;15.588;2023-03-20T10:38:09;97731.22;;;11.95;67.82
73106;BME280;61559;50.476;15.588;2023-03-20T10:40:43;97733.04;;;11.97;68.30
73106;BME280;61559;50.476;15.588;2023-03-20T10:43:19;97738.10;;;11.98;68.35
73106;BME280;61559;50.476;15.588;2023-03-20T10:45:56;97735.94;;;11.99;68.58
73106;BME280;61559;50.476;15.588;2023-03-20T10:48:29;97730.86;;;12.01;68.67
73106;BME280;61559;50.476;15.588;2023-03-20T10:51:03;97728.46;;;12.02;68.54
73106;BME280;61559;50.476;15.588;2023-03-20T10:53:40;97731.34;;;12.06;68.20
73106;BME280;61559;50.476;15.588;2023-03-20T10:56:17;97727.54;;;12.08;68.14
73106;BME280;61559;50.476;15.588;2023-03-20T10:58:56;97719.23;;;12.11;67.50
73106;BME280;61559;50.476;15.588;2023-03-20T11:01:28;97719.91;;;12.12;67.44
73106;BME280;61559;50.476;15.588;2023-03-20T11:04:02;97716.94;;;12.07;67.45
73106;BME280;61559;50.476;15.588;2023-03-20T11:06:36;97716.41;;;12.01;67.78
73106;BME280;61559;50.476;15.588;2023-03-20T11:09:15;97714.52;;;11.96;68.03
73106;BME280;61559;50.476;15.588;2023-03-20T11:11:50;97718.88;;;11.89;68.08
73106;BME280;61559;50.476;15.588;2023-03-20T11:14:23;97712.27;;;11.84;68.29
73106;BME280;61559;50.476;15.588;2023-03-20T11:16:56;97713.47;;;11.81;68.94
73106;BME280;61559;50.476;15.588;2023-03-20T11:19:33;97708.64;;;11.84;68.92
73106;BME280;61559;50.476;15.588;2023-03-20T11:22:14;97705.65;;;11.87;69.04
73106;BME280;61559;50.476;15.588;2023-03-20T11:24:54;97710.17;;;11.95;68.96
73106;BME280;61559;50.476;15.588;2023-03-20T11:27:28;97705.66;;;12.00;68.63
73106;BME280;61559;50.476;15.588;2023-03-20T11:30:02;97705.61;;;12.04;68.78
73106;BME280;61559;50.476;15.588;2023-03-20T11:32:38;97705.71;;;12.10;68.61
73106;BME280;61559;50.476;15.588;2023-03-20T11:35:20;97706.59;;;12.19;68.78
73106;BME280;61559;50.476;15.588;2023-03-20T11:38:08;97707.72;;;12.37;68.43
73106;BME280;61559;50.476;15.588;2023-03-20T11:40:40;97698.36;;;12.47;67.78
73106;BME280;61559;50.476;15.588;2023-03-20T11:43:13;97699.22;;;12.53;67.05
73106;BME280;61559;50.476;15.588;2023-03-20T11:45:46;97692.98;;;12.61;67.23
73106;BME280;61559;50.476;15.588;2023-03-20T11:48:20;97688.96;;;12.77;67.19
73106;BME280;61559;50.476;15.588;2023-03-20T11:50:58;97690.30;;;12.96;66.15
73106;BME280;61559;50.476;15.588;2023-03-20T11:53:33;97690.09;;;13.05;65.17
73106;BME280;61559;50.476;15.588;2023-03-20T11:56:09;97687.10;;;13.11;64.96
73106;BME280;61559;50.476;15.588;2023-03-20T11:58:55;97687.80;;;13.27;64.39
73106;BME280;61559;50.476;15.588;2023-03-20T12:01:37;97687.80;;;13.37;63.67
73106;BME280;61559;50.476;15.588;2023-03-20T12:04:11;97696.27;;;13.31;61.84
73106;BME280;61559;50.476;15.588;2023-03-20T12:06:49;97685.45;;;13.16;62.20
73106;BME280;61559;50.476;15.588;2023-03-20T12:09:32;97682.59;;;13.04;61.84
73106;BME280;61559;50.476;15.588;2023-03-20T12:12:11;97687.67;;;12.95;62.42
73106;BME280;61559;50.476;15.588;2023-03-20T12:14:49;97685.59;;;12.90;62.91
73106;BME280;61559;50.476;15.588;2023-03-20T12:17:37;97678.98;;;12.89;63.31
73106;BME280;61559;50.476;15.588;2023-03-20T12:20:19;97678.73;;;12.95;63.08
73106;BME280;61559;50.476;15.588;2023-03-20T12:23:00;97674.20;;;12.98;62.13
73106;BME280;61559;50.476;15.588;2023-03-20T12:25:36;97673.73;;;13.00;61.42
73106;BME280;61559;50.476;15.588;2023-03-20T12:28:17;97676.40;;;13.00;60.83
73106;BME280;61559;50.476;15.588;2023-03-20T12:31:08;97671.27;;;13.04;61.15
73106;BME280;61559;50.476;15.588;2023-03-20T12:33:51;97665.23;;;13.11;60.88
73106;BME280;61559;50.476;15.588;2023-03-20T12:36:30;97660.84;;;13.14;60.59
73106;BME280;61559;50.476;15.588;2023-03-20T12:39:05;97656.52;;;13.15;60.73
73106;BME280;61559;50.476;15.588;2023-03-20T12:41:42;97653.45;;;13.16;60.78
73106;BME280;61559;50.476;15.588;2023-03-20T12:44:27;97646.50;;;13.18;60.36
73106;BME280;61559;50.476;15.588;2023-03-20T12:47:11;97643.48;;;13.25;60.28
73106;BME280;61559;50.476;15.588;2023-03-20T12:49:52;97640.02;;;13.31;60.70
73106;BME280;61559;50.476;15.588;2023-03-20T12:52:36;97639.63;;;13.40;60.23
73106;BME280;61559;50.476;15.588;2023-03-20T12:55:20;97636.54;;;13.50;60.95
73106;BME280;61559;50.476;15.588;2023-03-20T12:58:02;97629.61;;;13.64;60.63
73106;BME280;61559;50.476;15.588;2023-03-20T13:00:36;97623.80;;;13.75;60.05
73106;BME280;61559;50.476;15.588;2023-03-20T13:03:25;97618.98;;;13.87;59.94
73106;BME280;61559;50.476;15.588;2023-03-20T13:06:03;97614.90;;;14.07;60.40
73106;BME280;61559;50.476;15.588;2023-03-20T13:11:41;97607.07;;;14.43;58.58
73106;BME280;61559;50.476;15.588;2023-03-20T13:14:19;97609.64;;;14.66;58.64
73106;BME280;61559;50.476;15.588;2023-03-20T13:16:56;97608.04;;;14.88;57.28
73106;BME280;61559;50.476;15.588;2023-03-20T13:19:35;97606.14;;;15.00;55.47
73106;BME280;61559;50.476;15.588;2023-03-20T13:22:16;97606.92;;;14.96;54.35
73106;BME280;61559;50.476;15.588;2023-03-20T13:24:57;97610.63;;;14.82;54.51
73106;BME280;61559;50.476;15.588;2023-03-20T13:27:36;97617.17;;;14.74;54.80
73106;BME280;61559;50.476;15.588;2023-03-20T13:30:16;97611.69;;;14.68;54.68
73106;BME280;61559;50.476;15.588;2023-03-20T13:32:57;97607.48;;;14.63;54.93
73106;BME280;61559;50.476;15.588;2023-03-20T13:35:44;97604.07;;;14.60;55.36
73106;BME280;61559;50.476;15.588;2023-03-20T13:38:22;97606.27;;;14.56;55.83
73106;BME280;61559;50.476;15.588;2023-03-20T13:40:59;97606.24;;;14.56;55.99
73106;BME280;61559;50.476;15.588;2023-03-20T13:43:34;97605.77;;;14.52;55.42
73106;BME280;61559;50.476;15.588;2023-03-20T13:46:08;97599.03;;;14.47;55.26
73106;BME280;61559;50.476;15.588;2023-03-20T13:48:41;97597.61;;;14.46;55.78